Data for 11/10/2005

Time Sea-Level Adjusted Pressure Absolute Pressure Temperature Relative Humidity Dew Point   
(mb) (inHg) (mb) (inHg) (C) (F) (%) (C) (F)
00:05 1022 30.18 851 25.13 -0.2 31.6 71 -4.8 23.3
00:10 1022 30.18 851 25.13 -0.1 31.7 71 -4.8 23.4
00:15 1022 30.18 851 25.13 -0.3 31.5 70 -5 23
00:20 1022 30.18 851 25.13 -0 32 68 -5.2 22.7
00:25 1022 30.18 851 25.13 -0.4 31.3 70 -5.2 22.7
00:30 1022 30.18 852 25.16 -0.8 30.5 73 -5.1 22.8
00:35 1022 30.18 852 25.16 -1.1 30 74 -5.2 22.6
00:40 1022 30.18 852 25.16 -1 30.3 75 -4.8 23.4
00:45 1022 30.18 852 25.16 -0.7 30.7 74 -4.9 23.2
00:50 1022 30.18 852 25.16 -0.4 31.3 74 -4.5 23.9
00:55 1022 30.18 852 25.16 -0.3 31.5 74 -4.4 24.1
01:00 1022 30.18 852 25.16 -0 32 74 -4.2 24.4
01:05 1022 30.18 852 25.16 -0.3 31.4 75 -4.2 24.4
01:10 1022 30.18 852 25.16 -0.3 31.4 75 -4.3 24.3
01:15 1022 30.18 851 25.13 0 32 73 -4.3 24.3
01:20 1022 30.18 852 25.16 0.3 32.5 72 -4.3 24.3
01:25 1022 30.18 852 25.16 -0.3 31.4 75 -4.3 24.3
01:30 1022 30.18 852 25.16 -0.6 30.9 74 -4.6 23.7
01:35 1022 30.18 852 25.16 -0.1 31.8 72 -4.7 23.6
01:40 1022 30.18 851 25.13 -0.2 31.7 72 -4.6 23.7
01:45 1022 30.18 851 25.13 -0.3 31.4 71 -5 23
01:50 1022 30.18 851 25.13 -0.2 31.6 73 -4.5 24
01:55 1022 30.18 852 25.16 -0.6 30.9 75 -4.4 24
02:00 1022 30.18 852 25.16 -0.7 30.7 74 -4.7 23.5
02:05 1022 30.18 852 25.16 -0.7 30.7 74 -4.8 23.4
02:10 1022 30.18 852 25.16 -0.3 31.4 72 -4.7 23.5
02:15 1022 30.18 852 25.16 -0.7 30.8 73 -4.9 23.2
02:20 1022 30.18 852 25.16 -0.8 30.5 74 -4.9 23.2
02:25 1022 30.18 852 25.16 -0.9 30.3 76 -4.6 23.7
02:30 1022 30.18 852 25.16 -0.1 31.8 73 -4.5 23.9
02:35 1022 30.18 851 25.13 0.5 32.9 71 -4.1 24.6
02:40 1022 30.18 851 25.13 0.2 32.4 71 -4.4 24.1
02:45 1022 30.18 851 25.13 0.2 32.3 72 -4.2 24.4
02:50 1022 30.18 851 25.13 0.2 32.4 69 -4.9 23.3
02:55 1022 30.18 851 25.13 0.4 32.7 67 -5 23
03:00 1022 30.18 851 25.13 0.6 33 66 -5 23
03:05 1022 30.18 851 25.13 0.1 32.2 68 -5 22.9
03:10 1022 30.18 851 25.13 0.4 32.6 69 -4.7 23.5
03:15 1022 30.18 851 25.13 0.7 33.2 69 -4.3 24.2
03:20 1022 30.18 851 25.13 0.4 32.7 71 -4.3 24.2
03:25 1022 30.18 851 25.13 0.4 32.7 73 -4 24.8
03:30 1022 30.18 851 25.13 0.2 32.4 71 -4.4 24.1
03:35 1022 30.18 851 25.13 0.1 32.2 67 -5.2 22.7
03:40 1022 30.18 851 25.13 -0.1 31.8 69 -5.1 22.9
03:45 1022 30.18 851 25.13 -0.3 31.4 69 -5.3 22.5
03:50 1022 30.18 851 25.13 -0.3 31.4 68 -5.5 22
03:55 1022 30.18 851 25.13 0.5 32.9 70 -4.4 24.1
04:00 1021 30.15 851 25.13 1.8 35.3 63 -4.5 23.9
04:05 1021 30.15 851 25.13 1.7 35.1 62 -4.7 23.5
04:10 1022 30.18 851 25.13 1.3 34.3 64 -4.8 23.4
04:15 1021 30.15 851 25.13 0.7 33.3 64 -5.4 22.3
04:20 1022 30.18 851 25.13 0.2 32.3 71 -4.4 24
04:25 1022 30.18 851 25.13 -0.1 31.9 72 -4.5 23.9
04:30 1021 30.15 851 25.13 -0.2 31.6 71 -4.9 23.2
04:35 1021 30.15 851 25.13 0.9 33.7 65 -4.9 23.2
04:40 1021 30.15 851 25.13 -0.6 30.9 75 -4.6 23.8
04:45 1021 30.15 851 25.13 -1.6 29.2 79 -4.8 23.4
04:50 1021 30.15 851 25.13 -0.9 30.4 75 -4.8 23.4
04:55 1021 30.15 851 25.13 -1.2 29.9 77 -4.6 23.6
05:00 1021 30.15 851 25.13 -0.9 30.5 73 -5.2 22.7
05:05 1021 30.15 850 25.1 0.6 33 67 -4.9 23.2
05:10 1021 30.15 850 25.1 0.6 33.2 68 -4.6 23.7
05:15 1021 30.15 850 25.1 -0.4 31.2 72 -5 23.1
05:20 1021 30.15 850 25.1 -0.9 30.4 74 -5 23.1
05:25 1021 30.15 850 25.1 -1 30.3 75 -4.9 23.2
05:30 1021 30.15 850 25.1 -0.6 31 73 -4.9 23.1
05:35 1021 30.15 850 25.1 -0.2 31.6 71 -4.8 23.4
05:40 1021 30.15 850 25.1 -0.2 31.7 69 -5.1 22.8
05:45 1021 30.15 850 25.1 0.2 32.4 67 -5.1 22.7
05:50 1021 30.15 850 25.1 0.7 33.3 66 -4.9 23.3
05:55 1021 30.15 850 25.1 0.3 32.6 70 -4.6 23.8
06:00 1021 30.15 850 25.1 0.3 32.5 70 -4.5 23.9
06:05 1021 30.15 850 25.1 0.4 32.7 71 -4.2 24.4
06:10 1021 30.15 850 25.1 0.3 32.6 71 -4.3 24.3
06:15 1021 30.15 850 25.1 0.1 32.3 71 -4.6 23.8
06:20 1021 30.15 850 25.1 -0.2 31.7 73 -4.5 24
06:25 1021 30.15 850 25.1 -0.5 31.2 73 -4.7 23.5
06:30 1021 30.15 850 25.1 -0.9 30.4 75 -4.7 23.5
06:35 1021 30.15 850 25.1 -0.7 30.8 76 -4.4 24
06:40 1021 30.15 850 25.1 -0.5 31.1 75 -4.5 23.9
06:45 1021 30.15 850 25.1 0.2 32.4 71 -4.3 24.2
06:50 1021 30.15 850 25.1 0.7 33.2 70 -4.1 24.6
06:55 1021 30.15 850 25.1 0.7 33.3 70 -4.1 24.7
07:00 1021 30.15 850 25.1 0.7 33.3 68 -4.4 24
07:05 1021 30.15 850 25.1 0.3 32.5 70 -4.5 23.9
07:10 1021 30.15 850 25.1 -0.7 30.8 72 -5.1 22.8
07:15 1020 30.12 850 25.1 -0.5 31.1 68 -5.7 21.8
07:20 1021 30.15 850 25.1 -0.1 31.9 69 -5.1 22.9
07:25 1020 30.12 850 25.1 -0.8 30.6 73 -5.1 22.8
07:30 1021 30.15 850 25.1 -0.7 30.7 70 -5.5 22
07:35 1021 30.15 850 25.1 -0.2 31.7 70 -4.9 23.1
07:40 1021 30.15 850 25.1 -0.4 31.3 73 -4.6 23.6
07:45 1021 30.15 850 25.1 0.1 32.3 71 -4.5 23.9
07:50 1021 30.15 850 25.1 0.9 33.6 67 -4.5 23.9
07:55 1021 30.15 850 25.1 0.9 33.7 69 -4.1 24.6
08:00 1021 30.15 850 25.1 1.5 34.6 68 -3.9 25
08:05 1021 30.15 850 25.1 1.5 34.8 66 -4.1 24.7
08:10 1021 30.15 850 25.1 1.5 34.8 65 -4.3 24.3
08:15 1021 30.15 850 25.1 1.1 34 66 -4.6 23.7
08:20 1021 30.15 850 25.1 1.2 34.1 65 -4.6 23.7
08:25 1021 30.15 850 25.1 1.7 35 63 -4.5 23.8
08:30 1021 30.15 850 25.1 1.8 35.2 64 -4.2 24.4
08:35 1021 30.15 850 25.1 1.9 35.3 66 -3.9 25
08:40 1021 30.15 850 25.1 1.7 35.1 66 -4.1 24.7
08:45 1021 30.15 850 25.1 1.7 35 66 -4 24.8
08:50 1020 30.12 850 25.1 1.9 35.4 64 -4.3 24.3
08:55 1020 30.12 850 25.1 1.7 35.1 64 -4.4 24.1
09:00 1020 30.12 850 25.1 2.5 36.5 61 -4.3 24.2
09:05 1020 30.12 850 25.1 3 37.5 62 -3.5 25.7
09:10 1020 30.12 850 25.1 3.5 38.2 60 -3.5 25.8
09:15 1020 30.12 849 25.07 3.8 38.9 58 -3.6 25.5
09:20 1020 30.12 850 25.1 4.7 40.4 55 -3.6 25.5
09:25 1020 30.12 849 25.07 5.5 41.9 53 -3.2 26.2
09:30 1020 30.12 849 25.07 5.6 42 54 -3 26.5
09:35 1020 30.12 849 25.07 5.6 42.1 54 -3 26.6
09:40 1020 30.12 849 25.07 6 42.8 55 -2.3 27.9
09:45 1020 30.12 849 25.07 5.6 42.1 55 -2.8 27
09:50 1020 30.12 849 25.07 5 41 57 -2.7 27.1
09:55 1020 30.12 849 25.07 4.6 40.3 60 -2.5 27.4
10:00 1020 30.12 849 25.07 5.1 41.2 58 -2.6 27.4
10:05 1020 30.12 849 25.07 5.6 42.2 56 -2.5 27.6
10:10 1020 30.12 849 25.07 6.3 43.3 54 -2.4 27.6
10:15 1019 30.09 849 25.07 6.3 43.3 55 -2 28.3
10:20 1020 30.12 849 25.07 6.7 44.1 53 -2.1 28.3
10:25 1020 30.12 849 25.07 6.5 43.7 55 -1.9 28.6
10:30 1020 30.12 849 25.07 7 44.5 51 -2.4 27.6
10:35 1019 30.09 849 25.07 7.5 45.4 49 -2.6 27.3
10:40 1019 30.09 849 25.07 8 46.4 47 -2.5 27.4
10:45 1019 30.09 848 25.04 8.6 47.5 46 -2.2 28
10:50 1019 30.09 848 25.04 9.2 48.6 47 -1.6 29.2
10:55 1019 30.09 848 25.04 9.2 48.6 48 -1.3 29.7
11:00 1019 30.09 848 25.04 8.9 48.1 48 -1.4 29.5
11:05 1019 30.09 848 25.04 8.4 47.2 52 -0.9 30.4
11:10 1019 30.09 848 25.04 7.9 46.1 52 -1.4 29.6
11:15 1019 30.09 848 25.04 7.9 46.2 52 -1.4 29.5
11:20 1019 30.09 848 25.04 8.5 47.2 46 -2.5 27.5
11:25 1018 30.06 848 25.04 9.2 48.5 44 -2.4 27.7
11:30 1018 30.06 848 25.04 9.3 48.7 42 -2.9 26.8
11:35 1018 30.06 847 25.01 9.7 49.4 43 -2.3 27.8
11:40 1018 30.06 847 25.01 10.2 50.3 42 -2.3 27.9
11:45 1018 30.06 847 25.01 10.3 50.6 44 -1.2 29.8
11:50 1018 30.06 847 25.01 10.1 50.1 44 -1.5 29.4
11:55 1018 30.06 847 25.01 10.4 50.7 44 -1.2 29.8
12:00 1018 30.06 847 25.01 9.9 49.7 47 -0.9 30.5
12:05 1018 30.06 847 25.01 9.5 49.1 48 -0.8 30.5
12:10 1018 30.06 847 25.01 10.1 50.2 45 -1.2 29.9
12:15 1018 30.06 847 25.01 10.1 50.1 48 -0.5 31.2
12:20 1017 30.03 847 25.01 10.5 51 46 -0.6 30.9
12:25 1017 30.03 847 25.01 11 51.9 44 -0.6 30.9
12:30 1017 30.03 846 24.98 10.3 50.6 48 -0.1 31.8
12:35 1017 30.03 846 24.98 9.9 49.9 49 -0.2 31.6
12:40 1017 30.03 847 25.01 8.9 48.1 52 -0.4 31.2
12:45 1017 30.03 846 24.98 8.1 46.6 54 -0.5 31.1
12:50 1017 30.03 846 24.98 7.7 45.8 54 -0.9 30.3
12:55 1017 30.03 846 24.98 7.6 45.7 55 -0.9 30.5
13:00 1017 30.03 846 24.98 7.7 45.9 55 -0.8 30.6
13:05 1017 30.03 846 24.98 7.7 45.9 55 -0.8 30.6
13:10 1017 30.03 846 24.98 8.1 46.7 53 -0.8 30.6
13:15 1017 30.03 846 24.98 8.3 46.9 53 -0.8 30.6
13:20 1017 30.03 846 24.98 8.3 46.9 54 -0.5 31.1
13:25 1017 30.03 846 24.98 8.4 47.2 53 -0.5 31.1
13:30 1016 30 846 24.98 8.2 46.8 55 -0.3 31.4
13:35 1016 30 846 24.98 8.3 46.9 55 -0.3 31.5
13:40 1016 30 846 24.98 7.9 46.3 57 -0 31.9
13:45 1016 30 845 24.95 7.6 45.8 58 0 32.1
13:50 1016 30 845 24.95 7.7 45.8 58 -0.1 31.9
13:55 1016 30 845 24.95 7.6 45.7 58 -0 31.9
14:00 1016 30 845 24.95 7.8 46 57 -0.1 31.8
14:05 1016 30 845 24.95 8.3 46.9 55 -0.2 31.7
14:10 1016 30 845 24.95 8.6 47.5 53 -0.3 31.4
14:15 1016 30 845 24.95 9.5 49.2 49 -0.6 30.9
14:20 1016 30 845 24.95 9.2 48.6 49 -0.9 30.4
14:25 1016 30 845 24.95 9.2 48.6 49 -0.9 30.4
14:30 1016 30 845 24.95 9.4 48.9 49 -0.9 30.4
14:35 1016 30 845 24.95 9.8 49.7 50 -0.1 31.9
14:40 1016 30 845 24.95 9.4 48.9 54 0.7 33.2
14:45 1015 29.97 845 24.95 9.3 48.7 57 1.1 34.1
14:50 1015 29.97 845 24.95 9.3 48.8 58 1.5 34.8
14:55 1015 29.97 845 24.95 9.4 48.9 59 1.8 35.2
15:00 1015 29.97 844 24.92 9.9 49.8 57 1.8 35.2
15:05 1015 29.97 844 24.92 10.7 51.2 54 1.7 35.1
15:10 1015 29.97 844 24.92 11.8 53.2 50 1.9 35.4
15:15 1015 29.97 844 24.92 12.4 54.3 50 2.4 36.3
15:20 1015 29.97 844 24.92 12.1 53.7 52 2.5 36.6
15:25 1015 29.97 844 24.92 11.4 52.6 55 2.7 36.9
15:30 1015 29.97 844 24.92 11.1 52 54 2.1 35.7
15:35 1015 29.97 844 24.92 10.4 50.8 61 3.3 37.9
15:40 1015 29.97 844 24.92 9.9 49.8 62 2.9 37.2
15:45 1015 29.97 844 24.92 9.1 48.4 61 2.1 35.8
15:50 1015 29.97 844 24.92 9 48.3 64 2.7 36.8
15:55 1015 29.97 844 24.92 8.8 47.8 65 2.7 36.8
16:00 1015 29.97 844 24.92 8.5 47.4 66 2.5 36.5
16:05 1015 29.97 844 24.92 8.6 47.5 65 2.4 36.4
16:10 1015 29.97 844 24.92 8.8 47.8 66 2.8 37
16:15 1015 29.97 844 24.92 8.4 47.1 65 2.3 36.2
16:20 1015 29.97 844 24.92 8.3 47 66 2.4 36.4
16:25 1015 29.97 844 24.92 8.3 46.9 67 2.6 36.8
16:30 1015 29.97 844 24.92 8.1 46.6 68 2.6 36.7
16:35 1015 29.97 844 24.92 8.1 46.5 67 2.4 36.3
16:40 1015 29.97 844 24.92 8.1 46.5 66 2.1 35.8
16:45 1015 29.97 844 24.92 8 46.5 67 2.4 36.3
16:50 1015 29.97 844 24.92 7.8 46 67 2.1 35.8
16:55 1015 29.97 844 24.92 7.1 44.8 72 2.3 36.2
17:00 1015 29.97 844 24.92 6.7 44 73 2.1 35.8
17:05 1014 29.94 844 24.92 6.8 44.3 68 1.4 34.6
17:10 1014 29.94 844 24.92 6.9 44.5 70 1.8 35.3
17:15 1014 29.94 843 24.89 6.5 43.7 70 1.5 34.6
17:20 1014 29.94 843 24.89 7.2 45 65 1.1 34
17:25 1014 29.94 843 24.89 7 44.5 68 1.5 34.7
17:30 1014 29.94 843 24.89 6.7 44 68 1.1 34
17:35 1014 29.94 843 24.89 6.7 44.1 67 1.2 34.1
17:40 1014 29.94 843 24.89 7.3 45.1 65 1.1 33.9
17:45 1014 29.94 843 24.89 7.5 45.4 63 0.9 33.6
17:50 1014 29.94 843 24.89 7.3 45.1 65 1.2 34.2
17:55 1014 29.94 843 24.89 6.9 44.5 67 1.3 34.3
18:00 1014 29.94 843 24.89 6.7 44 68 1.2 34.1
18:05 1014 29.94 843 24.89 7 44.6 65 1 33.7
18:10 1014 29.94 843 24.89 7.4 45.4 64 1 33.8
18:15 1014 29.94 843 24.89 7.6 45.6 63 1.1 34
18:20 1014 29.94 843 24.89 7.6 45.6 63 0.9 33.6
18:25 1014 29.94 843 24.89 7.1 44.7 65 0.9 33.7
18:30 1014 29.94 843 24.89 6.8 44.3 67 1.1 33.9
18:35 1014 29.94 843 24.89 6.2 43.1 68 0.8 33.4
18:40 1014 29.94 843 24.89 6.2 43.1 67 0.5 32.8
18:45 1014 29.94 843 24.89 6.1 43.1 69 0.8 33.5
18:50 1014 29.94 843 24.89 5.8 42.4 70 0.8 33.5
18:55 1014 29.94 843 24.89 6.2 43.2 65 0.2 32.4
19:00 1014 29.94 843 24.89 6.5 43.7 64 0.2 32.3
19:05 1014 29.94 843 24.89 6.4 43.5 65 0.4 32.7
19:10 1014 29.94 843 24.89 6.6 43.8 65 0.4 32.7
19:15 1014 29.94 843 24.89 6.3 43.4 64 -0 31.9
19:20 1014 29.94 843 24.89 6.6 43.8 64 0.3 32.6
19:25 1014 29.94 843 24.89 6.9 44.3 64 0.5 32.9
19:30 1014 29.94 843 24.89 6.8 44.2 63 0.3 32.5
19:35 1014 29.94 843 24.89 7.2 44.9 62 0.4 32.7
19:40 1014 29.94 843 24.89 7 44.5 62 0.2 32.4
19:45 1014 29.94 843 24.89 6.4 43.6 65 0.4 32.8
19:50 1014 29.94 843 24.89 5.7 42.3 67 0 32
19:55 1014 29.94 843 24.89 6.1 42.9 63 -0.4 31.3
20:00 1014 29.94 843 24.89 6.8 44.2 60 -0.4 31.3
20:05 1014 29.94 843 24.89 7.2 44.9 59 -0.2 31.6
20:10 1014 29.94 843 24.89 7.3 45.2 59 -0.2 31.7
20:15 1014 29.94 843 24.89 7 44.6 60 -0.3 31.4
20:20 1014 29.94 843 24.89 6.5 43.6 64 0.1 32.1
20:25 1013 29.91 843 24.89 5.7 42.3 67 0.1 32.2
20:30 1014 29.94 843 24.89 5.4 41.7 65 -0.6 30.9
20:35 1014 29.94 843 24.89 5.6 42 67 -0.1 31.9
20:40 1014 29.94 843 24.89 5.2 41.3 65 -0.9 30.4
20:45 1014 29.94 843 24.89 6.5 43.8 61 -0.5 31
20:50 1014 29.94 843 24.89 6.5 43.7 61 -0.5 31
20:55 1014 29.94 843 24.89 6.1 43 63 -0.4 31.3
21:00 1014 29.94 843 24.89 6.1 42.9 61 -0.9 30.4
21:05 1014 29.94 843 24.89 7.1 44.8 58 -0.6 30.9
21:10 1014 29.94 843 24.89 6.6 43.8 63 0 32.1
21:15 1014 29.94 843 24.89 5.7 42.3 66 -0.2 31.7
21:20 1014 29.94 843 24.89 5.5 42 66 -0.4 31.4
21:25 1014 29.94 843 24.89 5.5 41.9 66 -0.3 31.4
21:30 1014 29.94 843 24.89 5.5 41.9 66 -0.4 31.3
21:35 1014 29.94 843 24.89 5.3 41.5 68 -0.1 31.9
21:40 1014 29.94 843 24.89 4.7 40.5 68 -0.6 31
21:45 1014 29.94 843 24.89 5.3 41.6 63 -1.1 29.9
21:50 1014 29.94 843 24.89 6.1 43 60 -1.2 29.9
21:55 1014 29.94 843 24.89 6.6 43.9 60 -0.6 30.9
22:00 1014 29.94 843 24.89 6.5 43.7 59 -0.9 30.3
22:05 1014 29.94 843 24.89 6.7 44.1 59 -0.7 30.7
22:10 1013 29.91 843 24.89 6.4 43.5 61 -0.6 30.8
22:15 1014 29.94 843 24.89 6 42.8 61 -0.8 30.5
22:20 1013 29.91 843 24.89 6.4 43.6 59 -0.9 30.4
22:25 1013 29.91 843 24.89 6.4 43.6 60 -0.7 30.7
22:30 1013 29.91 843 24.89 6.7 44.1 58 -0.9 30.5
22:35 1013 29.91 843 24.89 7.2 44.9 56 -1 30.2
22:40 1013 29.91 842 24.86 7.1 44.8 57 -0.9 30.4
22:45 1013 29.91 842 24.86 7.4 45.4 55 -1 30.3
22:50 1013 29.91 842 24.86 7.3 45.2 57 -0.5 31
22:55 1013 29.91 842 24.86 7.3 45.1 57 -0.6 30.9
23:00 1013 29.91 842 24.86 6.9 44.5 59 -0.6 30.9
23:05 1013 29.91 842 24.86 7 44.5 59 -0.4 31.2
23:10 1013 29.91 842 24.86 6.8 44.3 60 -0.4 31.3
23:15 1013 29.91 842 24.86 7 44.5 59 -0.4 31.2
23:20 1013 29.91 842 24.86 7.1 44.9 58 -0.4 31.2
23:25 1013 29.91 842 24.86 7.4 45.3 58 -0.3 31.5
23:30 1013 29.91 842 24.86 7.5 45.4 58 -0.2 31.6
23:35 1013 29.91 842 24.86 7.2 44.9 60 -0.1 31.8
23:40 1013 29.91 842 24.86 7.3 45.1 56 -0.8 30.5
23:45 1013 29.91 842 24.86 7.7 45.9 55 -0.6 30.9
23:50 1013 29.91 842 24.86 8 46.5 53 -0.8 30.5
23:55 1013 29.91 842 24.86 8.2 46.8 53 -0.6 30.9
24:00 1013 29.91 842 24.86 8.6 47.4 52 -0.8 30.6